createdAt,value
2018-01-04T00:16:50.818Z,974.22
2018-01-04T00:17:50.729Z,974.26
2018-01-04T00:18:50.595Z,974.26
2018-01-04T00:19:50.527Z,974.31
2018-01-04T00:20:50.509Z,974.34
2018-01-04T00:21:50.281Z,974.23
2018-01-04T00:22:50.195Z,974.24
2018-01-04T00:23:50.193Z,974.20
2018-01-04T00:24:50.131Z,974.13
2018-01-04T00:25:50.112Z,974.17
2018-01-04T00:26:50.095Z,974.16
2018-01-04T00:27:50.080Z,974.19
2018-01-04T00:28:50.032Z,974.12
2018-01-04T00:29:50.051Z,974.22
2018-01-04T00:30:50.020Z,974.21
2018-01-04T00:31:50.035Z,974.22
2018-01-04T00:32:49.972Z,974.28
2018-01-04T00:33:50.015Z,974.25
2018-01-04T00:34:49.950Z,974.25
2018-01-04T00:35:49.900Z,974.28
2018-01-04T00:36:49.897Z,974.29
2018-01-04T00:37:49.830Z,974.31
2018-01-04T00:38:49.820Z,974.29
2018-01-04T00:39:49.790Z,974.28
2018-01-04T00:40:49.808Z,974.26
2018-01-04T00:41:49.792Z,974.26
2018-01-04T00:42:49.743Z,974.28
2018-01-04T00:43:49.767Z,974.30
2018-01-04T00:44:49.696Z,974.26
2018-01-04T00:45:49.690Z,974.23
2018-01-04T00:46:49.631Z,974.27
2018-01-04T00:47:49.619Z,974.22
2018-01-04T00:48:49.602Z,974.18
2018-01-04T00:49:49.590Z,974.11
2018-01-04T00:50:49.583Z,974.12
2018-01-04T00:51:49.526Z,974.13
2018-01-04T00:52:49.473Z,974.15
2018-01-04T00:53:49.472Z,974.17
2018-01-04T00:54:49.481Z,974.14
2018-01-04T00:55:49.487Z,974.14
2018-01-04T00:56:49.444Z,974.22
2018-01-04T00:57:49.370Z,974.20
2018-01-04T00:58:49.407Z,974.28
2018-01-04T00:59:49.330Z,974.24
2018-01-04T01:00:49.324Z,974.27
2018-01-04T01:01:49.300Z,974.25
2018-01-04T01:02:49.322Z,974.24
2018-01-04T01:03:49.314Z,974.25
2018-01-04T01:04:49.261Z,974.29
2018-01-04T01:05:49.236Z,974.30
2018-01-04T01:06:49.210Z,974.37
2018-01-04T01:07:49.176Z,974.32
2018-01-04T01:08:49.142Z,974.43
2018-01-04T01:09:49.108Z,974.36
2018-01-04T01:10:49.083Z,974.33
2018-01-04T01:11:49.137Z,974.36
2018-01-04T01:12:49.058Z,974.36
2018-01-04T01:13:49.003Z,974.37
2018-01-04T01:14:49.037Z,974.38
2018-01-04T01:15:49.052Z,974.37
2018-01-04T01:16:48.998Z,974.37
2018-01-04T01:17:48.919Z,974.42
2018-01-04T01:18:48.930Z,974.36
2018-01-04T01:19:48.890Z,974.39
2018-01-04T01:20:48.864Z,974.40
2018-01-04T01:21:48.901Z,974.33
2018-01-04T01:22:48.841Z,974.32
2018-01-04T01:23:48.838Z,974.31
2018-01-04T01:24:48.763Z,974.25
2018-01-04T01:25:48.769Z,974.26
2018-01-04T01:26:48.744Z,974.17
2018-01-04T01:27:48.688Z,974.19
2018-01-04T01:28:48.691Z,974.16
2018-01-04T01:29:48.663Z,974.14
2018-01-04T01:30:48.691Z,974.20
2018-01-04T01:31:48.611Z,974.18
2018-01-04T01:32:48.592Z,974.12
2018-01-04T01:33:48.592Z,974.16
2018-01-04T01:34:48.546Z,974.19
2018-01-04T01:35:48.614Z,974.26
2018-01-04T01:36:48.556Z,974.26
2018-01-04T01:37:48.513Z,974.28
2018-01-04T01:38:48.500Z,974.30
2018-01-04T01:39:48.548Z,974.25
2018-01-04T01:40:48.431Z,974.34
2018-01-04T01:41:48.429Z,974.34
2018-01-04T01:42:48.350Z,974.25
2018-01-04T01:43:48.403Z,974.32
2018-01-04T01:44:48.374Z,974.31
2018-01-04T01:45:48.350Z,974.38
2018-01-04T01:46:48.281Z,974.41
2018-01-04T01:47:48.292Z,974.33
2018-01-04T01:48:48.284Z,974.34
2018-01-04T01:49:50.816Z,974.32
2018-01-04T01:50:48.258Z,974.38
2018-01-04T01:51:48.216Z,974.27
2018-01-04T01:52:48.124Z,974.29
2018-01-04T01:53:48.107Z,974.29
2018-01-04T01:54:48.158Z,974.26
2018-01-04T01:55:48.104Z,974.28
2018-01-04T01:56:48.098Z,974.30
2018-01-04T01:57:48.032Z,974.23
2018-01-04T01:58:48.090Z,974.20
2018-01-04T01:59:47.987Z,974.18
2018-01-04T02:00:48.033Z,974.20
2018-01-04T02:01:47.994Z,974.26
2018-01-04T02:02:47.970Z,974.18
2018-01-04T02:03:47.966Z,974.19
2018-01-04T02:04:47.932Z,974.12
2018-01-04T02:05:47.846Z,974.25
2018-01-04T02:06:47.865Z,974.25
2018-01-04T02:07:47.841Z,974.20
2018-01-04T02:08:47.815Z,974.16
2018-01-04T02:09:48.737Z,974.14
2018-01-04T02:10:47.774Z,974.16
2018-01-04T02:11:47.825Z,974.13
2018-01-04T02:12:47.737Z,974.16
2018-01-04T02:13:47.709Z,974.21
2018-01-04T02:14:47.707Z,974.18
2018-01-04T02:15:47.688Z,974.11
2018-01-04T02:16:47.682Z,974.14
2018-01-04T02:17:47.578Z,974.16
2018-01-04T02:18:47.578Z,974.09
2018-01-04T02:19:47.560Z,974.19
2018-01-04T02:20:47.527Z,974.12
2018-01-04T02:21:47.542Z,974.16
2018-01-04T02:22:47.478Z,974.14
2018-01-04T02:23:47.506Z,974.18
2018-01-04T02:24:47.506Z,974.15
2018-01-04T02:25:47.442Z,974.16
2018-01-04T02:26:47.405Z,974.15
2018-01-04T02:27:47.423Z,974.18
2018-01-04T02:28:47.382Z,974.15
2018-01-04T02:29:47.362Z,974.15
2018-01-04T02:30:47.314Z,974.15
2018-01-04T02:31:47.302Z,974.17
2018-01-04T02:32:47.307Z,974.17
2018-01-04T02:33:47.303Z,974.19
2018-01-04T02:34:47.330Z,974.35
2018-01-04T02:35:47.221Z,974.26
2018-01-04T02:36:47.219Z,974.31
2018-01-04T02:37:47.137Z,974.29
2018-01-04T02:38:47.146Z,974.35
2018-01-04T02:39:47.085Z,974.33
2018-01-04T02:40:47.090Z,974.31
2018-01-04T02:41:47.076Z,974.34
2018-01-04T02:42:47.028Z,974.30
2018-01-04T02:43:47.028Z,974.35
2018-01-04T02:44:47.074Z,974.37
2018-01-04T02:45:46.997Z,974.30
2018-01-04T02:46:47.019Z,974.36
2018-01-04T02:47:46.915Z,974.40
2018-01-04T02:48:46.899Z,974.37
2018-01-04T02:49:46.913Z,974.44
2018-01-04T02:50:46.892Z,974.39
2018-01-04T02:51:46.885Z,974.41
2018-01-04T02:52:46.840Z,974.44
2018-01-04T02:53:46.830Z,974.41
2018-01-04T02:54:46.793Z,974.45
2018-01-04T02:55:46.764Z,974.46
2018-01-04T02:56:46.762Z,974.47
2018-01-04T02:57:46.739Z,974.43
2018-01-04T02:58:46.689Z,974.50
2018-01-04T02:59:46.676Z,974.51
2018-01-04T03:00:46.655Z,974.46
2018-01-04T03:01:46.625Z,974.56
2018-01-04T03:02:46.594Z,974.51
2018-01-04T03:03:46.585Z,974.55
2018-01-04T03:04:46.577Z,974.45
2018-01-04T03:05:46.611Z,974.45
2018-01-04T03:06:46.520Z,974.50
2018-01-04T03:07:46.517Z,974.50
2018-01-04T03:08:46.447Z,974.50
2018-01-04T03:09:46.431Z,974.51
2018-01-04T03:10:46.428Z,974.51
2018-01-04T03:11:46.438Z,974.41
2018-01-04T03:12:46.400Z,974.50
2018-01-04T03:13:46.391Z,974.49
2018-01-04T03:14:46.380Z,974.40
2018-01-04T03:15:46.283Z,974.38
2018-01-04T03:16:46.274Z,974.39
2018-01-04T03:17:52.823Z,974.37
2018-01-04T03:18:46.224Z,974.39
2018-01-04T03:19:46.277Z,974.39
2018-01-04T03:20:46.204Z,974.31
2018-01-04T03:21:46.186Z,974.43
2018-01-04T03:22:46.174Z,974.46
2018-01-04T03:23:46.175Z,974.36
2018-01-04T03:24:46.099Z,974.39
2018-01-04T03:25:46.083Z,974.45
2018-01-04T03:26:46.108Z,974.38
2018-01-04T03:27:46.081Z,974.47
2018-01-04T03:28:46.845Z,974.40
2018-01-04T03:29:45.996Z,974.40
2018-01-04T03:30:46.138Z,974.38
2018-01-04T03:31:46.124Z,974.38
2018-01-04T03:32:46.021Z,974.36
2018-01-04T03:33:45.889Z,974.42
2018-01-04T03:34:45.910Z,974.43
2018-01-04T03:35:45.974Z,974.51
2018-01-04T03:36:45.942Z,974.47
2018-01-04T03:37:45.957Z,974.44
2018-01-04T03:38:45.885Z,974.46
2018-01-04T03:39:45.962Z,974.57
2018-01-04T03:40:45.817Z,974.58
2018-01-04T03:41:45.745Z,974.58
2018-01-04T03:42:45.820Z,974.61
2018-01-04T03:43:45.840Z,974.57
2018-01-04T03:44:45.717Z,974.60
2018-01-04T03:45:45.673Z,974.59
2018-01-04T03:46:45.646Z,974.58
2018-01-04T03:47:45.764Z,974.53
2018-01-04T03:48:46.356Z,974.57
2018-01-04T03:49:45.590Z,974.54
2018-01-04T03:50:45.567Z,974.55
2018-01-04T03:51:45.518Z,974.48
2018-01-04T03:52:45.515Z,974.49
2018-01-04T03:53:45.505Z,974.48
2018-01-04T03:54:45.550Z,974.45
2018-01-04T03:55:45.534Z,974.42
2018-01-04T03:56:45.476Z,974.44
2018-01-04T03:57:45.465Z,974.47
2018-01-04T03:58:45.398Z,974.41
2018-01-04T03:59:46.427Z,974.40
2018-01-04T04:00:45.436Z,974.40
2018-01-04T04:01:45.301Z,974.38
2018-01-04T04:02:45.434Z,974.36
2018-01-04T04:03:45.347Z,974.39
2018-01-04T04:15:54.218Z,974.50
2018-01-04T04:19:00.817Z,974.50
2018-01-04T04:20:01.218Z,974.58
2018-01-04T04:21:01.725Z,974.50
2018-01-04T04:22:01.439Z,974.50
2018-01-04T04:23:01.560Z,974.51
2018-01-04T04:25:49.976Z,974.48
2018-01-04T04:26:50.444Z,974.49
2018-01-04T04:27:50.433Z,974.47
2018-01-04T04:28:49.839Z,974.44
2018-01-04T04:29:50.424Z,974.43
2018-01-04T04:30:49.802Z,974.44
2018-01-04T04:31:50.856Z,974.50
2018-01-04T04:32:50.258Z,974.50
2018-01-04T04:33:50.394Z,974.56
2018-01-04T04:34:50.429Z,974.49
2018-01-04T04:35:49.638Z,974.47
2018-01-04T04:36:49.441Z,974.50
2018-01-04T04:37:49.289Z,974.48
2018-01-04T04:38:49.275Z,974.50
2018-01-04T04:39:49.266Z,974.45
2018-01-04T04:40:49.273Z,974.53
2018-01-04T04:41:49.162Z,974.43
2018-01-04T04:42:49.234Z,974.45
2018-01-04T04:43:49.149Z,974.40
2018-01-04T04:44:49.332Z,974.44
2018-01-04T04:45:49.105Z,974.53
2018-01-04T04:46:49.081Z,974.55
2018-01-04T04:47:49.183Z,974.55
2018-01-04T04:48:48.977Z,974.60
2018-01-04T04:49:48.985Z,974.73
2018-01-04T04:50:48.919Z,974.67
2018-01-04T04:51:48.949Z,974.72
2018-01-04T04:52:48.940Z,974.72
2018-01-04T04:53:48.849Z,974.70
2018-01-04T04:54:48.879Z,974.69
2018-01-04T04:55:48.813Z,974.75
2018-01-04T04:56:48.757Z,974.70
2018-01-04T04:57:48.770Z,974.79
2018-01-04T04:58:48.740Z,974.69
2018-01-04T04:59:48.716Z,974.68
2018-01-04T05:00:48.693Z,974.70
2018-01-04T05:01:48.667Z,974.75
2018-01-04T05:02:48.685Z,974.69
2018-01-04T05:03:48.600Z,974.76
2018-01-04T05:04:48.578Z,974.75
2018-01-04T05:05:48.574Z,974.78
2018-01-04T05:06:48.546Z,974.87
2018-01-04T05:07:48.507Z,974.85
2018-01-04T05:08:48.506Z,974.81
2018-01-04T05:09:48.532Z,974.85
2018-01-04T05:10:48.474Z,974.90
2018-01-04T05:11:48.453Z,974.94
2018-01-04T05:12:48.450Z,975.01
2018-01-04T05:13:48.450Z,975.02
2018-01-04T05:14:48.356Z,975.00
2018-01-04T05:15:48.384Z,975.03
2018-01-04T05:16:48.333Z,975.06
2018-01-04T05:17:48.309Z,975.12
2018-01-04T05:18:48.347Z,975.18
2018-01-04T05:19:48.282Z,975.15
2018-01-04T05:20:49.027Z,975.11
2018-01-04T05:21:48.264Z,975.14
2018-01-04T05:22:48.349Z,975.08
2018-01-04T05:23:48.196Z,975.09
2018-01-04T05:24:48.202Z,975.05
2018-01-04T05:25:48.128Z,974.90
2018-01-04T05:26:48.119Z,974.90
2018-01-04T05:27:48.133Z,974.96
2018-01-04T05:28:48.146Z,974.94
2018-01-04T05:29:48.044Z,974.97
2018-01-04T05:30:48.045Z,974.88
2018-01-04T05:31:48.056Z,974.89
2018-01-04T05:32:47.963Z,974.89
2018-01-04T05:33:47.934Z,974.88
2018-01-04T05:34:47.967Z,974.87
2018-01-04T05:35:47.941Z,974.81
2018-01-04T05:36:47.892Z,974.73
2018-01-04T05:37:47.854Z,974.76
2018-01-04T05:38:47.857Z,974.74
2018-01-04T05:39:47.820Z,974.65
2018-01-04T05:40:47.813Z,974.70
2018-01-04T05:41:47.798Z,974.61
2018-01-04T05:42:47.761Z,974.61
2018-01-04T05:43:47.768Z,974.63
2018-01-04T05:44:47.700Z,974.65
2018-01-04T05:45:47.676Z,974.67
2018-01-04T05:46:47.674Z,974.61
2018-01-04T05:47:47.695Z,974.59
2018-01-04T05:48:47.642Z,974.65
2018-01-04T05:49:47.575Z,974.66
2018-01-04T05:50:47.588Z,974.67
2018-01-04T05:51:47.520Z,974.71
2018-01-04T05:52:47.530Z,974.71
2018-01-04T05:53:47.539Z,974.75
2018-01-04T05:54:47.486Z,974.73
2018-01-04T05:55:47.462Z,974.68
2018-01-04T05:56:47.459Z,974.69
2018-01-04T05:57:47.417Z,974.67
2018-01-04T05:58:47.407Z,974.59
2018-01-04T05:59:47.402Z,974.62
2018-01-04T06:00:47.353Z,974.55
2018-01-04T06:01:47.322Z,974.55
2018-01-04T06:02:47.379Z,974.55
2018-01-04T06:03:47.270Z,974.56
2018-01-04T06:04:47.242Z,974.52
2018-01-04T06:05:47.216Z,974.50
2018-01-04T06:06:47.294Z,974.52
2018-01-04T06:07:47.173Z,974.49
2018-01-04T06:08:47.423Z,974.46
2018-01-04T06:09:47.219Z,974.45
2018-01-04T06:10:47.097Z,974.45
2018-01-04T06:11:47.110Z,974.43
2018-01-04T06:12:47.124Z,974.46
2018-01-04T06:13:47.073Z,974.48
2018-01-04T06:14:47.068Z,974.48
2018-01-04T06:15:47.034Z,974.45
2018-01-04T06:16:47.077Z,974.55
2018-01-04T06:17:47.000Z,974.54
2018-01-04T06:18:46.966Z,974.52
2018-01-04T06:19:46.968Z,974.50
2018-01-04T06:20:46.878Z,974.48
2018-01-04T06:21:46.934Z,974.51
2018-01-04T06:22:47.136Z,974.52
2018-01-04T06:23:46.813Z,974.54
2018-01-04T06:24:46.912Z,974.57
2018-01-04T06:25:46.772Z,974.58
2018-01-04T06:26:47.549Z,974.59
2018-01-04T06:27:46.779Z,974.56
2018-01-04T06:28:46.750Z,974.55
2018-01-04T06:29:46.751Z,974.53
2018-01-04T06:30:46.682Z,974.59
2018-01-04T06:31:46.699Z,974.54
2018-01-04T06:32:46.679Z,974.55
2018-01-04T06:33:46.644Z,974.48
2018-01-04T06:34:46.571Z,974.46
2018-01-04T06:35:47.472Z,974.45
2018-01-04T06:36:46.577Z,974.50
2018-01-04T06:37:46.542Z,974.54
2018-01-04T06:38:46.578Z,974.62
2018-01-04T06:39:46.533Z,974.59
2018-01-04T06:40:46.440Z,974.62
2018-01-04T06:41:46.429Z,974.60
2018-01-04T06:42:46.407Z,974.62
2018-01-04T06:43:46.425Z,974.68
2018-01-04T06:44:46.364Z,974.65
2018-01-04T06:45:46.366Z,974.64
2018-01-04T06:46:46.375Z,974.68
2018-01-04T06:47:46.295Z,974.70
2018-01-04T06:48:46.343Z,974.67
2018-01-04T06:49:46.272Z,974.69
2018-01-04T06:50:46.310Z,974.65
2018-01-04T06:51:46.223Z,974.66
2018-01-04T06:52:46.196Z,974.68
2018-01-04T06:53:46.161Z,974.68
2018-01-04T06:54:46.194Z,974.60
2018-01-04T06:55:46.224Z,974.61
2018-01-04T06:56:46.110Z,974.59
2018-01-04T06:57:46.143Z,974.60
2018-01-04T06:58:46.068Z,974.57
2018-01-04T06:59:46.023Z,974.57
2018-01-04T07:00:46.050Z,974.65
2018-01-04T07:01:46.020Z,974.66
2018-01-04T07:02:45.957Z,974.66
2018-01-04T07:03:46.001Z,974.71
2018-01-04T07:04:46.006Z,974.62
2018-01-04T07:05:45.913Z,974.62
2018-01-04T07:06:45.878Z,974.67
2018-01-04T07:07:45.962Z,974.66
2018-01-04T07:08:45.880Z,974.65
2018-01-04T07:09:45.874Z,974.59
2018-01-04T07:10:46.232Z,974.58
2018-01-04T07:11:45.831Z,974.56
2018-01-04T07:12:45.729Z,974.55
2018-01-04T07:13:45.763Z,974.60
2018-01-04T07:14:45.762Z,974.57
2018-01-04T07:15:45.694Z,974.57
2018-01-04T07:16:45.644Z,974.62
2018-01-04T07:17:45.654Z,974.63
2018-01-04T07:18:45.702Z,974.61
2018-01-04T07:19:45.582Z,974.61
2018-01-04T07:20:45.613Z,974.64
2018-01-04T07:21:45.968Z,974.67
2018-01-04T07:22:45.588Z,974.68
2018-01-04T07:23:45.636Z,974.69
2018-01-04T07:24:45.626Z,974.70
2018-01-04T07:25:45.564Z,974.77
2018-01-04T07:26:45.496Z,974.75
2018-01-04T07:27:45.480Z,974.70
2018-01-04T07:28:45.518Z,974.72
2018-01-04T07:29:45.808Z,974.74
2018-01-04T07:30:45.415Z,974.77
2018-01-04T07:31:45.427Z,974.75
2018-01-04T07:32:45.567Z,974.79
2018-01-04T07:33:45.445Z,974.74
2018-01-04T07:34:45.670Z,974.72
2018-01-04T07:50:01.277Z,974.65
2018-01-04T08:14:47.785Z,974.91
2018-01-04T08:15:46.659Z,974.94
2018-01-04T08:28:52.224Z,974.89
2018-01-04T08:29:51.698Z,974.90
2018-01-04T08:30:52.403Z,974.93
2018-01-04T08:31:51.930Z,974.89
2018-01-04T09:03:13.790Z,974.99
2018-01-04T09:04:05.916Z,974.97
2018-01-04T09:05:06.430Z,974.96
2018-01-04T09:06:05.967Z,974.98
2018-01-04T09:07:05.834Z,975.02
2018-01-04T09:08:05.901Z,975.05
2018-01-04T09:09:05.582Z,975.05
2018-01-04T09:10:05.810Z,975.05
2018-01-04T09:11:06.379Z,975.07
2018-01-04T09:12:06.989Z,975.07
2018-01-04T09:13:07.345Z,975.02
2018-01-04T09:14:05.778Z,975.03
2018-01-04T09:15:06.470Z,974.97
2018-01-04T09:16:06.239Z,974.97
2018-01-04T09:17:06.933Z,974.93
2018-01-04T09:18:05.537Z,974.88
2018-01-04T09:19:05.230Z,974.83
2018-01-04T09:20:05.213Z,974.84
2018-01-04T09:21:05.231Z,974.80
2018-01-04T09:22:05.188Z,974.77
2018-01-04T09:23:05.145Z,974.74
2018-01-04T09:24:05.108Z,974.71
2018-01-04T09:25:05.211Z,974.73
2018-01-04T09:26:05.082Z,974.72
2018-01-04T09:27:05.087Z,974.72
2018-01-04T09:28:05.038Z,974.73
2018-01-04T09:29:04.984Z,974.73
2018-01-04T09:30:05.117Z,974.70
2018-01-04T09:31:04.983Z,974.64
2018-01-04T09:32:04.955Z,974.67
2018-01-04T09:33:04.933Z,974.65
2018-01-04T09:34:04.927Z,974.65
2018-01-04T09:35:04.897Z,974.64
2018-01-04T09:36:04.831Z,974.67
2018-01-04T09:37:04.867Z,974.62
2018-01-04T09:38:04.846Z,974.67
2018-01-04T09:39:04.796Z,974.67
2018-01-04T09:40:04.768Z,974.69
2018-01-04T09:41:04.737Z,974.68
2018-01-04T09:42:04.712Z,974.65
2018-01-04T09:43:04.739Z,974.63
2018-01-04T09:44:04.684Z,974.61
2018-01-04T09:45:04.702Z,974.63
2018-01-04T09:46:04.725Z,974.65
2018-01-04T09:47:04.682Z,974.63
2018-01-04T09:48:04.608Z,974.60
2018-01-04T09:49:04.590Z,974.63
2018-01-04T09:50:04.568Z,974.59
2018-01-04T09:51:04.524Z,974.56
2018-01-04T09:52:04.530Z,974.61
2018-01-04T09:53:04.491Z,974.56
2018-01-04T09:54:04.460Z,974.58
2018-01-04T09:55:04.452Z,974.55
2018-01-04T09:56:04.470Z,974.55
2018-01-04T09:57:04.407Z,974.54
2018-01-04T09:58:04.456Z,974.46
2018-01-04T09:59:04.434Z,974.45
2018-01-04T10:00:04.512Z,974.42
2018-01-04T10:01:04.409Z,974.46
2018-01-04T10:02:05.252Z,974.46
2018-01-04T10:03:06.099Z,974.47
2018-01-04T10:04:04.346Z,974.48
2018-01-04T10:05:04.275Z,974.44
2018-01-04T10:06:04.245Z,974.43
2018-01-04T10:07:04.213Z,974.40
2018-01-04T10:08:04.179Z,974.40
2018-01-04T10:09:04.197Z,974.39
2018-01-04T10:10:04.205Z,974.39
2018-01-04T10:11:04.759Z,974.42
2018-01-04T10:12:04.106Z,974.47
2018-01-04T10:13:04.090Z,974.38
2018-01-04T10:14:04.057Z,974.36
2018-01-04T10:15:04.036Z,974.37
2018-01-04T10:16:04.011Z,974.35
2018-01-04T10:17:04.010Z,974.34
2018-01-04T10:18:03.958Z,974.32
2018-01-04T10:19:03.965Z,974.31
2018-01-04T10:20:03.960Z,974.32
2018-01-04T10:21:03.922Z,974.32
2018-01-04T10:22:03.899Z,974.30
2018-01-04T10:23:03.871Z,974.33
2018-01-04T10:24:03.830Z,974.32
2018-01-04T10:25:03.847Z,974.29
2018-01-04T10:26:03.846Z,974.26
2018-01-04T10:27:03.796Z,974.28
2018-01-04T10:28:03.811Z,974.29
2018-01-04T10:29:03.737Z,974.25
2018-01-04T10:30:03.725Z,974.19
2018-01-04T10:31:03.742Z,974.20
2018-01-04T10:32:03.663Z,974.17
2018-01-04T10:33:04.942Z,974.22
2018-01-04T10:34:03.639Z,974.22
2018-01-04T10:35:03.614Z,974.28
2018-01-04T10:36:03.640Z,974.23
2018-01-04T10:37:03.575Z,974.22
2018-01-04T10:38:03.554Z,974.22
2018-01-04T10:39:03.574Z,974.16
2018-01-04T10:40:03.499Z,974.12
2018-01-04T10:41:03.490Z,974.09
2018-01-04T10:42:03.541Z,974.05
2018-01-04T10:43:03.503Z,974.05
2018-01-04T10:44:03.429Z,973.98
2018-01-04T10:45:03.437Z,974.03
2018-01-04T10:46:03.384Z,974.04
2018-01-04T10:47:03.457Z,974.03
2018-01-04T10:48:03.368Z,973.99
2018-01-04T10:49:03.696Z,973.99
2018-01-04T10:50:03.339Z,973.96
2018-01-04T10:51:03.506Z,973.85
2018-01-04T10:52:03.246Z,973.87
2018-01-04T10:53:03.381Z,973.84
2018-01-04T10:54:03.404Z,973.79
2018-01-04T10:55:05.327Z,973.76
2018-01-04T10:56:03.219Z,973.74
2018-01-04T10:59:16.415Z,973.70
2018-01-04T11:25:53.428Z,973.41
2018-01-04T11:26:53.570Z,973.36
2018-01-04T11:27:53.916Z,973.34
2018-01-04T11:49:57.554Z,973.06
2018-01-04T11:52:51.302Z,972.93
2018-01-04T11:53:50.874Z,972.97
2018-01-04T11:54:50.804Z,972.94
2018-01-04T11:55:50.592Z,972.97
2018-01-04T11:56:50.172Z,972.96
2018-01-04T11:57:50.210Z,972.93
2018-01-04T11:58:51.261Z,972.95
2018-01-04T11:59:50.244Z,972.88
2018-01-04T12:00:50.065Z,972.89
2018-01-04T12:01:50.588Z,972.85
2018-01-04T12:02:50.194Z,972.87
2018-01-04T12:03:49.917Z,972.86
2018-01-04T12:04:49.700Z,972.84
2018-01-04T12:05:50.533Z,972.81
2018-01-04T12:06:49.626Z,972.77
2018-01-04T12:07:49.658Z,972.81
2018-01-04T12:08:50.130Z,972.82
2018-01-04T12:09:49.549Z,972.84
2018-01-04T12:10:49.516Z,972.83
2018-01-04T12:11:49.517Z,972.81
2018-01-04T12:12:50.168Z,972.87
2018-01-04T12:13:49.504Z,972.86
2018-01-04T12:14:49.490Z,972.73
2018-01-04T12:15:49.421Z,972.63
2018-01-04T12:16:49.374Z,972.60
2018-01-04T12:17:49.457Z,972.49
2018-01-04T12:18:49.369Z,972.47
2018-01-04T12:19:49.945Z,972.44
2018-01-04T12:20:49.353Z,972.44
2018-01-04T12:21:49.331Z,972.39
2018-01-04T12:22:49.360Z,972.35
2018-01-04T12:23:49.267Z,972.29
2018-01-04T12:24:49.229Z,972.29
2018-01-04T12:25:49.215Z,972.26
2018-01-04T12:26:49.214Z,972.28
2018-01-04T12:27:49.226Z,972.29
2018-01-04T12:28:49.191Z,972.33
2018-01-04T12:29:49.134Z,972.34
2018-01-04T12:30:49.093Z,972.35
2018-01-04T12:31:49.131Z,972.36
2018-01-04T12:32:49.024Z,972.34
2018-01-04T12:33:49.144Z,972.33
2018-01-04T12:34:49.042Z,972.27
2018-01-04T12:35:49.067Z,972.22
2018-01-04T12:36:48.986Z,972.20
2018-01-04T12:37:49.031Z,972.18
2018-01-04T12:38:48.917Z,972.15
2018-01-04T12:39:48.974Z,972.16
2018-01-04T12:40:48.878Z,972.15
2018-01-04T12:41:48.871Z,972.08
2018-01-04T12:42:48.870Z,972.10
2018-01-04T12:43:48.834Z,972.10
2018-01-04T12:44:48.847Z,972.09
2018-01-04T12:45:48.849Z,972.06
2018-01-04T12:46:48.786Z,972.03
2018-01-04T12:47:48.730Z,972.06
2018-01-04T12:48:48.699Z,972.03
2018-01-04T12:49:48.718Z,972.04
2018-01-04T12:50:48.683Z,971.96
2018-01-04T12:51:48.657Z,971.96
2018-01-04T12:52:48.659Z,971.93
2018-01-04T12:53:48.619Z,971.91
2018-01-04T12:54:48.655Z,971.88
2018-01-04T12:55:48.819Z,971.87
2018-01-04T12:56:50.415Z,971.86
2018-01-04T12:57:48.490Z,971.86
2018-01-04T12:58:48.592Z,971.85
2018-01-04T12:59:48.490Z,971.81
2018-01-04T13:00:48.474Z,971.77
2018-01-04T13:01:48.496Z,971.78
2018-01-04T13:02:48.443Z,971.80
2018-01-04T13:03:48.414Z,971.87
2018-01-04T13:04:48.424Z,971.84
2018-01-04T13:05:48.365Z,971.79
2018-01-04T13:06:48.352Z,971.77
2018-01-04T13:07:48.372Z,971.75
2018-01-04T13:08:48.314Z,971.71
2018-01-04T13:09:48.253Z,971.72
2018-01-04T13:10:48.277Z,971.74
2018-01-04T13:11:48.257Z,971.66
2018-01-04T13:12:48.195Z,971.60
2018-01-04T13:13:48.212Z,971.57
2018-01-04T13:14:48.219Z,971.55
2018-01-04T13:15:48.207Z,971.53
2018-01-04T13:16:48.127Z,971.46
2018-01-04T13:17:48.154Z,971.48
2018-01-04T13:18:48.116Z,971.42
2018-01-04T13:19:48.102Z,971.39
2018-01-04T13:20:48.029Z,971.36
2018-01-04T13:21:48.053Z,971.35
2018-01-04T13:22:48.040Z,971.39
2018-01-04T13:23:48.004Z,971.34
2018-01-04T13:24:48.046Z,971.36
2018-01-04T13:25:47.973Z,971.31
2018-01-04T13:26:47.984Z,971.30
2018-01-04T13:27:47.870Z,971.29
2018-01-04T13:28:47.894Z,971.24
2018-01-04T13:29:47.891Z,971.18
2018-01-04T13:30:49.445Z,971.15
2018-01-04T13:31:47.830Z,971.14
2018-01-04T13:32:47.847Z,971.11
2018-01-04T13:33:47.800Z,971.10
2018-01-04T13:34:47.816Z,971.08
2018-01-04T13:35:47.810Z,971.07
2018-01-04T13:36:47.701Z,970.99
2018-01-04T13:37:47.718Z,970.96
2018-01-04T13:38:47.702Z,970.96
2018-01-04T13:39:47.727Z,970.93
2018-01-04T13:40:47.661Z,970.96
2018-01-04T13:41:47.628Z,970.95
2018-01-04T13:42:47.569Z,970.94
2018-01-04T13:43:47.542Z,970.88
2018-01-04T13:44:47.533Z,970.91
2018-01-04T13:45:47.543Z,970.89
2018-01-04T13:46:47.557Z,970.91
2018-01-04T13:47:47.555Z,970.88
2018-01-04T13:48:47.456Z,970.86
2018-01-04T13:49:47.673Z,970.82
2018-01-04T13:50:47.446Z,970.83
2018-01-04T13:51:47.458Z,970.83
2018-01-04T13:52:47.499Z,970.86
2018-01-04T14:04:55.223Z,970.62
2018-01-04T14:05:54.599Z,970.61
2018-01-04T14:06:54.602Z,970.64
2018-01-04T14:07:54.579Z,970.57
2018-01-04T14:08:54.589Z,970.55
2018-01-04T14:09:54.258Z,970.49
2018-01-04T14:10:54.218Z,970.50
2018-01-04T14:11:54.192Z,970.50
2018-01-04T14:12:54.046Z,970.47
2018-01-04T14:13:54.056Z,970.47
2018-01-04T14:14:54.626Z,970.49
2018-01-04T14:15:54.028Z,970.46
2018-01-04T14:16:54.027Z,970.45
2018-01-04T14:17:53.949Z,970.43
2018-01-04T14:18:54.123Z,970.38
2018-01-04T14:19:53.988Z,970.39
2018-01-04T14:20:53.922Z,970.36
2018-01-04T14:21:53.909Z,970.36
2018-01-04T14:22:53.910Z,970.33
2018-01-04T14:23:53.960Z,970.34
2018-01-04T14:24:53.881Z,970.34
2018-01-04T14:25:54.644Z,970.29
2018-01-04T14:26:53.807Z,970.28
2018-01-04T14:27:54.075Z,970.26
2018-01-04T14:28:53.968Z,970.29
2018-01-04T14:29:53.863Z,970.27
2018-01-04T14:30:53.695Z,970.29
2018-01-04T14:31:53.689Z,970.25
2018-01-04T14:32:53.731Z,970.28
2018-01-04T14:33:55.682Z,970.20
2018-01-04T14:34:53.711Z,970.20
2018-01-04T14:35:53.665Z,970.20
2018-01-04T14:36:53.786Z,970.16
2018-01-04T14:37:53.548Z,970.13
2018-01-04T14:38:53.568Z,970.12
2018-01-04T14:39:53.570Z,970.08
2018-01-04T14:40:53.518Z,970.09
2018-01-04T14:41:53.477Z,970.04
2018-01-04T14:42:53.484Z,970.02
2018-01-04T14:43:53.462Z,970.06
2018-01-04T14:44:54.160Z,970.03
2018-01-04T14:45:53.343Z,969.99
2018-01-04T14:46:53.357Z,969.98
2018-01-04T14:47:53.369Z,969.94
2018-01-04T14:48:54.179Z,969.90
2018-01-04T14:49:53.455Z,969.89
2018-01-04T14:50:53.329Z,969.88
2018-01-04T14:51:53.250Z,969.83
2018-01-04T14:52:53.383Z,969.84
2018-01-04T14:53:53.257Z,969.79
2018-01-04T14:54:53.214Z,969.78
2018-01-04T14:55:53.216Z,969.77
2018-01-04T14:56:53.096Z,969.78
2018-01-04T14:57:53.156Z,969.77
2018-01-04T14:58:53.107Z,969.72
2018-01-04T14:59:53.103Z,969.70
2018-01-04T15:00:53.158Z,969.64
2018-01-04T15:01:53.065Z,969.63
2018-01-04T15:02:53.036Z,969.55
2018-01-04T15:03:53.001Z,969.51
2018-01-04T15:04:53.033Z,969.53
2018-01-04T15:05:52.977Z,969.53
2018-01-04T15:06:52.883Z,969.52
2018-01-04T15:07:52.876Z,969.47
2018-01-04T15:08:52.855Z,969.46
2018-01-04T15:09:52.948Z,969.45
2018-01-04T15:10:52.852Z,969.40
2018-01-04T15:11:52.871Z,969.37
2018-01-04T15:12:52.800Z,969.35
2018-01-04T15:13:52.757Z,969.27
2018-01-04T15:14:52.759Z,969.25
2018-01-04T15:15:52.781Z,969.26
2018-01-04T15:16:52.709Z,969.24
2018-01-04T15:17:52.716Z,969.28
2018-01-04T15:18:52.698Z,969.28
2018-01-04T15:19:52.685Z,969.26
2018-01-04T15:20:52.616Z,969.25
2018-01-04T15:21:52.700Z,969.27